Leonie — PHLE — position and weather

sailwx.info

Track history (hours):
 
Tides and Currents Weather Stations Pressure Air Temp Water Temp Dewpoint Dewpoint Depression Visibility Wind Speed Wind Dir Waves Ship Positions

Leonie

Last reported at 2015-May-24 20:33 UTC. Time now 2015-May-24 21:28 UTC.
Position N 53°29' E 014°37'.

Length 90 m; draft 5.1 m.

Type: Cargo ship. MMSI: 244772000.

Date/timePositionNaut miles runAvg speedWind from/ knotsBaromVisibWave heightAir tempDewpointWater temp
2015-May-24 20:33N 53°29' E 014°37'0 0.0
2015-May-24 19:33N 53°29' E 014°37'0 0.0
2015-May-24 18:33N 53°29' E 014°37'0 0.0
2015-May-24 17:33N 53°29' E 014°37'0 0.0
2015-May-24 16:33N 53°29' E 014°37'0 0.0
2015-May-24 15:33N 53°29' E 014°37'0 0.0
2015-May-24 14:33N 53°29' E 014°37'0 0.0
2015-May-24 13:33N 53°29' E 014°37'0 0.0
2015-May-24 12:33N 53°29' E 014°37'0 0.0
2015-May-24 11:33N 53°29' E 014°37'0 0.0
2015-May-24 10:33N 53°29' E 014°37'0 0.0
2015-May-24 09:33N 53°29' E 014°37'0 0.0
2015-May-24 08:33N 53°29' E 014°37'0 0.0
2015-May-24 07:33N 53°29' E 014°37'0 0.0
2015-May-24 06:33N 53°29' E 014°37'0 0.0
2015-May-24 05:33N 53°29' E 014°37'0 0.0
2015-May-24 04:33N 53°29' E 014°37'0 0.0
2015-May-24 03:33N 53°29' E 014°37'0 0.0
2015-May-24 02:33N 53°29' E 014°37'0 0.0
2015-May-24 01:33N 53°29' E 014°37'0 0.0
2015-May-24 00:33N 53°29' E 014°37'0 0.0
2015-May-23 23:33N 53°29' E 014°37'0 0.0
2015-May-23 22:33N 53°29' E 014°37'0 0.0
2015-May-23 21:33N 53°29' E 014°37'0 0.0
2015-May-23 20:33N 53°29' E 014°37'0 0.0
2015-May-23 19:33N 53°29' E 014°37'0 0.0
2015-May-23 18:33N 53°29' E 014°37'0 0.0
2015-May-23 17:33N 53°29' E 014°37'0 0.0
2015-May-23 16:33N 53°29' E 014°37'0 0.0
2015-May-23 15:33N 53°29' E 014°37'0 0.0
2015-May-23 14:33N 53°29' E 014°37'0 0.0
2015-May-23 13:33N 53°29' E 014°37'0 0.0
2015-May-23 12:33N 53°29' E 014°37'0 0.0
2015-May-23 11:33N 53°29' E 014°37'5 5.3
2015-May-23 10:33N 53°34' E 014°36'10 9.6
2015-May-23 09:33N 53°43' E 014°28'1010.1
2015-May-23 08:33N 53°51' E 014°18'67 6.7
2015-May-22 22:32N 54°44' E 013°06'9 7.7
2015-May-22 21:20N 54°42' E 012°51'7 7.6
2015-May-22 20:23N 54°39' E 012°39'9 8.1
2015-May-22 19:17N 54°34' E 012°26'6 8.3
2015-May-22 18:33N 54°31' E 012°17'8 8.1
2015-May-22 17:33N 54°24' E 012°09'8 8.1
2015-May-22 16:33N 54°24' E 011°55'8 7.8
2015-May-22 15:33N 54°25' E 011°42'8 7.7
2015-May-22 14:33N 54°29' E 011°30'7 7.4
2015-May-22 13:33N 54°32' E 011°19'7 7.0
2015-May-22 12:33N 54°35' E 011°08'8 7.5
2015-May-22 11:33N 54°34' E 010°55'9 8.6
2015-May-22 10:33N 54°33' E 010°40'9 8.7
2015-May-22 09:33N 54°31' E 010°26'8 8.5
2015-May-22 08:33N 54°26' E 010°14'5 5.2
2015-May-22 07:33N 54°22' E 010°08'7 7.2
2015-May-22 06:33N 54°20' E 009°56'8 7.6
2015-May-22 05:33N 54°20' E 009°43'8 8.0
2015-May-22 04:33N 54°13' E 009°35'9 8.6
2015-May-22 03:32N 54°09' E 009°22'8 8.3
2015-May-22 02:33N 54°01' E 009°18'5 5.2
2015-May-22 01:33N 53°57' E 009°14'2 2.0
2015-May-22 00:33N 53°55' E 009°12'2 2.4
2015-May-21 23:33N 53°53' E 009°09'2 2.5
2015-May-21 22:33N 53°53' E 009°13'1110.6
2015-May-21 21:33N 53°45' E 009°25'1111.2
2015-May-21 20:33N 53°36' E 009°36'1211.5
2015-May-21 19:33N 53°33' E 009°54'2 2.0
2015-May-21 18:33N 53°31' E 009°57'0 0.0
2015-May-21 17:33N 53°31' E 009°57'0 0.0
2015-May-21 16:33N 53°31' E 009°57'0 0.0
2015-May-21 15:30N 53°31' E 009°57'0 0.0
2015-May-21 14:33N 53°31' E 009°57'0 0.0
2015-May-21 13:30N 53°31' E 009°57'0 0.0
2015-May-21 12:33N 53°31' E 009°57'0 0.0
2015-May-21 11:33N 53°31' E 009°57'0 0.0
2015-May-21 10:33N 53°31' E 009°57'0 0.0
2015-May-21 09:33N 53°31' E 009°57'0 0.0
2015-May-21 08:33N 53°31' E 009°57'0 0.0
2015-May-21 07:33N 53°31' E 009°57'5 4.6
2015-May-21 06:34N 53°33' E 009°50'1010.3
2015-May-21 05:33N 53°37' E 009°34'1 0.6
2015-May-21 04:33N 53°37' E 009°33'0 0.0
2015-May-21 03:33N 53°37' E 009°33'0 0.0
2015-May-21 02:33N 53°37' E 009°33'0 0.4
2015-May-21 01:33N 53°37' E 009°33'9 8.8
2015-May-21 00:33N 53°44' E 009°25'1313.3
2015-May-20 23:34N 53°53' E 009°08'1313.2
2015-May-20 22:33N 53°51' E 008°45'1312.4
2015-May-20 21:32N 53°58' E 008°28'1313.3
2015-May-20 20:32N 53°58' E 008°05'1212.5
2015-May-20 19:33N 53°55' E 007°45'1211.7
2015-May-20 18:33N 53°53' E 007°26'1111.2
2015-May-20 17:33N 53°51' E 007°07'3210.7
2015-May-20 14:33N 53°42' E 006°15'1010.4
2015-May-20 13:33N 53°39' E 005°58'1110.7
2015-May-20 12:33N 53°36' E 005°41'1110.9
2015-May-20 11:33N 53°33' E 005°24'1111.4
2015-May-20 10:33N 53°29' E 005°06'1211.7
2015-May-20 09:33N 53°24' E 004°48'1111.3
2015-May-20 08:33N 53°15' E 004°37'1211.9
2015-May-20 07:33N 53°05' E 004°27'1211.9
2015-May-20 06:33N 52°54' E 004°18'1212.4
2015-May-20 05:33N 52°44' E 004°06'1212.4
2015-May-20 04:33N 52°35' E 003°52'3912.6
2015-May-20 01:26N 51°60' E 003°24'1311.6
2015-May-20 00:18N 51°47' E 003°17'810.3
2015-May-19 23:33N 51°40' E 003°19'1111.2
2015-May-19 22:34N 51°30' E 003°28'9 8.6
2015-May-19 21:34N 51°28' E 003°42'0 0.0
2015-May-19 20:32N 51°28' E 003°42'0 0.0
2015-May-19 19:32N 51°28' E 003°42'0 0.0
2015-May-19 18:29N 51°28' E 003°42'0 0.0
2015-May-19 17:32N 51°28' E 003°42'0 0.0
2015-May-19 16:32N 51°28' E 003°42'0 0.0
2015-May-19 15:32N 51°28' E 003°42'0 0.0
2015-May-19 14:32N 51°28' E 003°42'0 0.0
2015-May-19 13:32N 51°28' E 003°42'0 0.0
2015-May-19 12:32N 51°28' E 003°42'0 0.0
2015-May-19 11:32N 51°28' E 003°42'0 0.0
2015-May-19 10:32N 51°28' E 003°42'0 0.0
2015-May-19 09:29N 51°28' E 003°42'0 0.0
2015-May-19 08:29N 51°28' E 003°42'0 0.0
2015-May-19 07:32N 51°28' E 003°42'0 0.0
2015-May-19 06:32N 51°28' E 003°42'0 0.0
2015-May-19 05:32N 51°28' E 003°42'0 0.0
2015-May-19 04:32N 51°28' E 003°42'0 0.0
2015-May-19 03:32N 51°28' E 003°42'0 0.0
2015-May-19 02:32N 51°28' E 003°42'1 0.6
2015-May-19 01:33N 51°27' E 003°41'8 8.1
2015-May-19 00:33N 51°30' E 003°28'9 9.5
2015-May-18 23:33N 51°38' E 003°20'10 9.2
2015-May-18 22:30N 51°46' E 003°14'1511.0
2015-May-18 21:11N 52°01' E 003°19'51 6.6
2015-May-18 13:23N 52°49' E 003°47'8 8.5
2015-May-18 12:26N 52°55' E 003°55'11 9.2
2015-May-18 11:16N 53°03' E 004°08'2810.0
2015-May-18 08:30N 53°25' E 004°36'9 9.3
2015-May-18 07:33N 53°31' E 004°47'9 8.7
2015-May-18 06:33N 53°34' E 005°00'8 8.5
2015-May-18 05:33N 53°37' E 005°14'8 8.4
2015-May-18 04:33N 53°39' E 005°28'9 9.2
2015-May-18 03:33N 53°42' E 005°42'1110.5
2015-May-18 02:33N 53°45' E 005°59'1210.6
2015-May-18 01:23N 53°49' E 006°19'910.4
2015-May-18 00:33N 53°51' E 006°33'22 9.5
2015-May-17 22:15N 53°57' E 007°10'6 8.3
2015-May-17 21:33N 53°58' E 007°19'8 8.0
2015-May-17 20:33N 53°60' E 007°32'8 7.6
2015-May-17 19:33N 54°02' E 007°45'8 8.0
2015-May-17 18:33N 54°02' E 007°58'9 8.7
2015-May-17 17:32N 54°01' E 008°13'1110.8
2015-May-17 16:33N 53°59' E 008°31'1211.9
2015-May-17 15:33N 53°51' E 008°46'1211.7
2015-May-17 14:33N 53°53' E 009°06'3 2.5
2015-May-17 13:33N 53°54' E 009°09'7 7.0
2015-May-17 12:33N 53°59' E 009°17'8 7.5
2015-May-17 11:31N 54°07' E 009°20'8 8.2
2015-May-17 10:33N 54°11' E 009°31'7 7.3
2015-May-17 09:33N 54°17' E 009°39'8 8.0
2015-May-17 08:33N 54°22' E 009°50'8 8.0
2015-May-17 07:33N 54°22' E 010°04'3 2.9
2015-May-17 06:33N 54°22' E 010°08'5 5.4
2015-May-17 05:33N 54°26' E 010°14'9 9.5
2015-May-17 04:33N 54°32' E 010°27'19 9.6
2015-May-17 02:33N 54°36' E 010°59'9 9.2
2015-May-17 01:33N 54°35' E 011°15'9 9.4
2015-May-17 00:33N 54°31' E 011°30'9 9.5
2015-May-16 23:33N 54°27' E 011°45'9 9.2
2015-May-16 22:33N 54°27' E 012°01'84 9.3
2015-May-16 13:33N 55°08' E 014°08'1010.1
2015-May-16 12:31N 55°16' E 014°20'1010.1
2015-May-16 11:33N 55°24' E 014°30'10 9.9
2015-May-16 10:33N 55°30' E 014°43'1010.0
2015-May-16 09:33N 55°35' E 014°58'1110.2
2015-May-16 08:31N 55°40' E 015°15'4210.4
2015-May-16 04:31N 56°01' E 016°19'4410.3
2015-May-16 00:13N 56°26' E 017°24'25910.3
2015-May-14 23:05N 59°35' E 022°58'610.3
2015-May-14 22:30N 59°36' E 023°10'1010.2
2015-May-14 21:33N 59°39' E 023°28'1110.5
2015-May-14 20:33N 59°42' E 023°48'  
Track history (hours):
 
Tides and Currents Weather Stations Pressure Air Temp Water Temp Dewpoint Dewpoint Depression Visibility Wind Speed Wind Dir Waves Ship Positions

Leonie

Last reported at 2015-May-24 20:33 UTC. Time now 2015-May-24 21:28 UTC.
Position N 53°29' E 014°37'.

Length 90 m; draft 5.1 m.

Type: Cargo ship. MMSI: 244772000.

Date/timePositionNaut miles runAvg speedWind from/ knotsBaromVisibWave heightAir tempDewpointWater temp
2015-May-24 20:33N 53°29' E 014°37'0 0.0
2015-May-24 19:33N 53°29' E 014°37'0 0.0
2015-May-24 18:33N 53°29' E 014°37'0 0.0
2015-May-24 17:33N 53°29' E 014°37'0 0.0
2015-May-24 16:33N 53°29' E 014°37'0 0.0
2015-May-24 15:33N 53°29' E 014°37'0 0.0
2015-May-24 14:33N 53°29' E 014°37'0 0.0
2015-May-24 13:33N 53°29' E 014°37'0 0.0
2015-May-24 12:33N 53°29' E 014°37'0 0.0
2015-May-24 11:33N 53°29' E 014°37'0 0.0
2015-May-24 10:33N 53°29' E 014°37'0 0.0
2015-May-24 09:33N 53°29' E 014°37'0 0.0
2015-May-24 08:33N 53°29' E 014°37'0 0.0
2015-May-24 07:33N 53°29' E 014°37'0 0.0
2015-May-24 06:33N 53°29' E 014°37'0 0.0
2015-May-24 05:33N 53°29' E 014°37'0 0.0
2015-May-24 04:33N 53°29' E 014°37'0 0.0
2015-May-24 03:33N 53°29' E 014°37'0 0.0
2015-May-24 02:33N 53°29' E 014°37'0 0.0
2015-May-24 01:33N 53°29' E 014°37'0 0.0
2015-May-24 00:33N 53°29' E 014°37'0 0.0
2015-May-23 23:33N 53°29' E 014°37'0 0.0
2015-May-23 22:33N 53°29' E 014°37'0 0.0
2015-May-23 21:33N 53°29' E 014°37'0 0.0
2015-May-23 20:33N 53°29' E 014°37'0 0.0
2015-May-23 19:33N 53°29' E 014°37'0 0.0
2015-May-23 18:33N 53°29' E 014°37'0 0.0
2015-May-23 17:33N 53°29' E 014°37'0 0.0
2015-May-23 16:33N 53°29' E 014°37'0 0.0
2015-May-23 15:33N 53°29' E 014°37'0 0.0
2015-May-23 14:33N 53°29' E 014°37'0 0.0
2015-May-23 13:33N 53°29' E 014°37'0 0.0
2015-May-23 12:33N 53°29' E 014°37'0 0.0
2015-May-23 11:33N 53°29' E 014°37'5 5.3
2015-May-23 10:33N 53°34' E 014°36'10 9.6
2015-May-23 09:33N 53°43' E 014°28'1010.1
2015-May-23 08:33N 53°51' E 014°18'67 6.7
2015-May-22 22:32N 54°44' E 013°06'9 7.7
2015-May-22 21:20N 54°42' E 012°51'7 7.6
2015-May-22 20:23N 54°39' E 012°39'9 8.1
2015-May-22 19:17N 54°34' E 012°26'6 8.3
2015-May-22 18:33N 54°31' E 012°17'8 8.1
2015-May-22 17:33N 54°24' E 012°09'8 8.1
2015-May-22 16:33N 54°24' E 011°55'8 7.8
2015-May-22 15:33N 54°25' E 011°42'8 7.7
2015-May-22 14:33N 54°29' E 011°30'7 7.4
2015-May-22 13:33N 54°32' E 011°19'7 7.0
2015-May-22 12:33N 54°35' E 011°08'8 7.5
2015-May-22 11:33N 54°34' E 010°55'9 8.6
2015-May-22 10:33N 54°33' E 010°40'9 8.7
2015-May-22 09:33N 54°31' E 010°26'8 8.5
2015-May-22 08:33N 54°26' E 010°14'5 5.2
2015-May-22 07:33N 54°22' E 010°08'7 7.2
2015-May-22 06:33N 54°20' E 009°56'8 7.6
2015-May-22 05:33N 54°20' E 009°43'8 8.0
2015-May-22 04:33N 54°13' E 009°35'9 8.6
2015-May-22 03:32N 54°09' E 009°22'8 8.3
2015-May-22 02:33N 54°01' E 009°18'5 5.2
2015-May-22 01:33N 53°57' E 009°14'2 2.0
2015-May-22 00:33N 53°55' E 009°12'2 2.4
2015-May-21 23:33N 53°53' E 009°09'2 2.5
2015-May-21 22:33N 53°53' E 009°13'1110.6
2015-May-21 21:33N 53°45' E 009°25'1111.2
2015-May-21 20:33N 53°36' E 009°36'1211.5
2015-May-21 19:33N 53°33' E 009°54'2 2.0
2015-May-21 18:33N 53°31' E 009°57'0 0.0
2015-May-21 17:33N 53°31' E 009°57'0 0.0
2015-May-21 16:33N 53°31' E 009°57'0 0.0
2015-May-21 15:30N 53°31' E 009°57'0 0.0
2015-May-21 14:33N 53°31' E 009°57'0 0.0
2015-May-21 13:30N 53°31' E 009°57'0 0.0
2015-May-21 12:33N 53°31' E 009°57'0 0.0
2015-May-21 11:33N 53°31' E 009°57'0 0.0
2015-May-21 10:33N 53°31' E 009°57'0 0.0
2015-May-21 09:33N 53°31' E 009°57'0 0.0
2015-May-21 08:33N 53°31' E 009°57'0 0.0
2015-May-21 07:33N 53°31' E 009°57'5 4.6
2015-May-21 06:34N 53°33' E 009°50'1010.3
2015-May-21 05:33N 53°37' E 009°34'1 0.6
2015-May-21 04:33N 53°37' E 009°33'0 0.0
2015-May-21 03:33N 53°37' E 009°33'0 0.0
2015-May-21 02:33N 53°37' E 009°33'0 0.4
2015-May-21 01:33N 53°37' E 009°33'9 8.8
2015-May-21 00:33N 53°44' E 009°25'1313.3
2015-May-20 23:34N 53°53' E 009°08'1313.2
2015-May-20 22:33N 53°51' E 008°45'1312.4
2015-May-20 21:32N 53°58' E 008°28'1313.3
2015-May-20 20:32N 53°58' E 008°05'1212.5
2015-May-20 19:33N 53°55' E 007°45'1211.7
2015-May-20 18:33N 53°53' E 007°26'1111.2
2015-May-20 17:33N 53°51' E 007°07'3210.7
2015-May-20 14:33N 53°42' E 006°15'1010.4
2015-May-20 13:33N 53°39' E 005°58'1110.7
2015-May-20 12:33N 53°36' E 005°41'1110.9
2015-May-20 11:33N 53°33' E 005°24'1111.4
2015-May-20 10:33N 53°29' E 005°06'1211.7
2015-May-20 09:33N 53°24' E 004°48'1111.3
2015-May-20 08:33N 53°15' E 004°37'1211.9
2015-May-20 07:33N 53°05' E 004°27'1211.9
2015-May-20 06:33N 52°54' E 004°18'1212.4
2015-May-20 05:33N 52°44' E 004°06'1212.4
2015-May-20 04:33N 52°35' E 003°52'3912.6
2015-May-20 01:26N 51°60' E 003°24'1311.6
2015-May-20 00:18N 51°47' E 003°17'810.3
2015-May-19 23:33N 51°40' E 003°19'1111.2
2015-May-19 22:34N 51°30' E 003°28'9 8.6
2015-May-19 21:34N 51°28' E 003°42'0 0.0
2015-May-19 20:32N 51°28' E 003°42'0 0.0
2015-May-19 19:32N 51°28' E 003°42'0 0.0
2015-May-19 18:29N 51°28' E 003°42'0 0.0
2015-May-19 17:32N 51°28' E 003°42'0 0.0
2015-May-19 16:32N 51°28' E 003°42'0 0.0
2015-May-19 15:32N 51°28' E 003°42'0 0.0
2015-May-19 14:32N 51°28' E 003°42'0 0.0
2015-May-19 13:32N 51°28' E 003°42'0 0.0
2015-May-19 12:32N 51°28' E 003°42'0 0.0
2015-May-19 11:32N 51°28' E 003°42'0 0.0
2015-May-19 10:32N 51°28' E 003°42'0 0.0
2015-May-19 09:29N 51°28' E 003°42'0 0.0
2015-May-19 08:29N 51°28' E 003°42'0 0.0
2015-May-19 07:32N 51°28' E 003°42'0 0.0
2015-May-19 06:32N 51°28' E 003°42'0 0.0
2015-May-19 05:32N 51°28' E 003°42'0 0.0
2015-May-19 04:32N 51°28' E 003°42'0 0.0
2015-May-19 03:32N 51°28' E 003°42'0 0.0
2015-May-19 02:32N 51°28' E 003°42'1 0.6
2015-May-19 01:33N 51°27' E 003°41'8 8.1
2015-May-19 00:33N 51°30' E 003°28'9 9.5
2015-May-18 23:33N 51°38' E 003°20'10 9.2
2015-May-18 22:30N 51°46' E 003°14'1511.0
2015-May-18 21:11N 52°01' E 003°19'51 6.6
2015-May-18 13:23N 52°49' E 003°47'8 8.5
2015-May-18 12:26N 52°55' E 003°55'11 9.2
2015-May-18 11:16N 53°03' E 004°08'2810.0
2015-May-18 08:30N 53°25' E 004°36'9 9.3
2015-May-18 07:33N 53°31' E 004°47'9 8.7
2015-May-18 06:33N 53°34' E 005°00'8 8.5
2015-May-18 05:33N 53°37' E 005°14'8 8.4
2015-May-18 04:33N 53°39' E 005°28'9 9.2
2015-May-18 03:33N 53°42' E 005°42'1110.5
2015-May-18 02:33N 53°45' E 005°59'1210.6
2015-May-18 01:23N 53°49' E 006°19'910.4
2015-May-18 00:33N 53°51' E 006°33'22 9.5
2015-May-17 22:15N 53°57' E 007°10'6 8.3
2015-May-17 21:33N 53°58' E 007°19'8 8.0
2015-May-17 20:33N 53°60' E 007°32'8 7.6
2015-May-17 19:33N 54°02' E 007°45'8 8.0
2015-May-17 18:33N 54°02' E 007°58'9 8.7
2015-May-17 17:32N 54°01' E 008°13'1110.8
2015-May-17 16:33N 53°59' E 008°31'1211.9
2015-May-17 15:33N 53°51' E 008°46'1211.7
2015-May-17 14:33N 53°53' E 009°06'3 2.5
2015-May-17 13:33N 53°54' E 009°09'7 7.0
2015-May-17 12:33N 53°59' E 009°17'8 7.5
2015-May-17 11:31N 54°07' E 009°20'8 8.2
2015-May-17 10:33N 54°11' E 009°31'7 7.3
2015-May-17 09:33N 54°17' E 009°39'8 8.0
2015-May-17 08:33N 54°22' E 009°50'8 8.0
2015-May-17 07:33N 54°22' E 010°04'3 2.9
2015-May-17 06:33N 54°22' E 010°08'5 5.4
2015-May-17 05:33N 54°26' E 010°14'9 9.5
2015-May-17 04:33N 54°32' E 010°27'19 9.6
2015-May-17 02:33N 54°36' E 010°59'9 9.2
2015-May-17 01:33N 54°35' E 011°15'9 9.4
2015-May-17 00:33N 54°31' E 011°30'9 9.5
2015-May-16 23:33N 54°27' E 011°45'9 9.2
2015-May-16 22:33N 54°27' E 012°01'84 9.3
2015-May-16 13:33N 55°08' E 014°08'1010.1
2015-May-16 12:31N 55°16' E 014°20'1010.1
2015-May-16 11:33N 55°24' E 014°30'10 9.9
2015-May-16 10:33N 55°30' E 014°43'1010.0
2015-May-16 09:33N 55°35' E 014°58'1110.2
2015-May-16 08:31N 55°40' E 015°15'4210.4
2015-May-16 04:31N 56°01' E 016°19'4410.3
2015-May-16 00:13N 56°26' E 017°24'25910.3
2015-May-14 23:05N 59°35' E 022°58'610.3
2015-May-14 22:30N 59°36' E 023°10'1010.2
2015-May-14 21:33N 59°39' E 023°28'1110.5
2015-May-14 20:33N 59°42' E 023°48'  

Dump ship's entire track history